Time;durP1;ratioP1;P1;durP2;ratioP2;P2;SDS_P1;SDS_P2;PMS_P1;PMS_P2;Temp;Humidity;BMP_temperature;BMP_pressure;BME280_temperature;BME280_humidity;BME280_pressure;Samples;Min_cycle;Max_cycle;Signal;HPM_P1;HPM_P2
2023/05/18 00:00:16;;;;;;;;;6.00;4.00;;;;;;;;1982962;28;2740330;-72
2023/05/18 00:01:30;;;;;;;;;5.83;5.00;;;;;;;;1981809;28;2743345;-72
2023/05/18 00:02:40;;;;;;;;;9.33;4.67;;;;;;;;1939657;28;3472105;-72
2023/05/18 00:03:54;;;;;;;;;7.80;5.60;;;;;;;;1987496;28;2740882;-72
2023/05/18 00:05:05;;;;;;;;;4.00;4.00;;;;;;;;1955921;28;2752369;-72
2023/05/18 00:06:18;;;;;;;;;6.00;5.80;;;;;;;;1981133;28;2724233;-72
2023/05/18 00:07:32;;;;;;;;;5.00;3.00;;;;;;;;1932453;28;3468975;-72
2023/05/18 00:08:43;;;;;;;;;6.33;4.00;;;;;;;;1957084;28;2750277;-72
2023/05/18 00:09:54;;;;;;;;;7.00;5.67;;;;;;;;1987106;28;2750293;-72
2023/05/18 00:11:05;;;;;;;;;8.00;5.33;;;;;;;;1965104;28;2739288;-72
2023/05/18 00:12:18;;;;;;;;;7.83;6.67;;;;;;;;1988708;28;2739854;-72
2023/05/18 00:13:31;;;;;;;;;7.33;6.67;;;;;;;;1987634;28;2735687;-71
2023/05/18 00:14:41;;;;;;;;;9.00;4.67;;;;;;;;1936990;28;2750254;-72
2023/05/18 00:15:52;;;;;;;;;6.00;4.00;;;;;;;;1976186;28;2739837;-72
2023/05/18 00:17:03;;;;;;;;;5.00;5.00;;;;;;;;1979780;28;2731528;-72
2023/05/18 00:18:13;;;;;;;;;4.67;4.67;;;;;;;;1958012;28;2748195;-72
2023/05/18 00:19:24;;;;;;;;;6.00;5.00;;;;;;;;1987141;28;2740938;-72
2023/05/18 00:20:37;;;;;;;;;7.17;6.00;;;;;;;;1988297;28;2742986;-72
2023/05/18 00:21:51;;;;;;;;;6.83;5.67;;;;;;;;1988186;28;2737763;-72
2023/05/18 00:23:05;;;;;;;;;8.17;5.67;;;;;;;;1988667;28;2740880;-72
2023/05/18 00:24:18;;;;;;;;;6.67;4.83;;;;;;;;1965371;28;2745066;-71
2023/05/18 00:25:31;;;;;;;;;8.17;7.50;;;;;;;;1966055;28;2741942;-71
2023/05/18 00:26:45;;;;;;;;;6.83;5.00;;;;;;;;1965438;28;2748175;-72
2023/05/18 00:27:55;;;;;;;;;9.33;6.33;;;;;;;;1940578;28;2743027;-72
2023/05/18 00:29:06;;;;;;;;;5.67;5.67;;;;;;;;1987046;28;2741399;-72
2023/05/18 00:30:20;;;;;;;;;7.67;6.00;;;;;;;;1988111;28;2743007;-71
2023/05/18 00:31:35;;;;;;;;;4.33;4.33;;;;;;;;1965384;28;2750258;-72
2023/05/18 00:32:48;;;;;;;;;7.33;5.17;;;;;;;;1965227;28;2742985;-72
2023/05/18 00:34:04;;;;;;;;;5.17;4.17;;;;;;;;1952390;28;2748175;-72
2023/05/18 00:35:14;;;;;;;;;7.33;5.00;;;;;;;;1956998;28;2742990;-72
2023/05/18 00:36:25;;;;;;;;;4.00;4.00;;;;;;;;1977683;28;2754936;-72
2023/05/18 00:37:36;;;;;;;;;7.00;4.00;;;;;;;;1980186;28;2752382;-72
2023/05/18 00:38:46;;;;;;;;;11.67;5.33;;;;;;;;1963474;28;2775380;-72
2023/05/18 00:39:57;;;;;;;;;8.33;6.00;;;;;;;;1986672;28;2736745;-72
2023/05/18 00:41:10;;;;;;;;;8.00;5.80;;;;;;;;1987246;28;2731535;-72
2023/05/18 00:42:23;;;;;;;;;8.17;6.33;;;;;;;;1967081;28;2745075;-72
2023/05/18 00:43:38;;;;;;;;;5.67;5.67;;;;;;;;1964914;28;2737822;-72
2023/05/18 00:44:49;;;;;;;;;8.33;5.33;;;;;;;;1963688;28;2741980;-72
2023/05/18 00:46:00;;;;;;;;;6.00;4.33;;;;;;;;1987713;28;2745085;-72
2023/05/18 00:47:10;;;;;;;;;3.67;3.00;;;;;;;;1963811;28;2752381;-72
2023/05/18 00:48:21;;;;;;;;;5.33;5.33;;;;;;;;1986955;28;2742955;-72
2023/05/18 00:49:34;;;;;;;;;5.50;5.00;;;;;;;;1986524;28;2742978;-72
2023/05/18 00:50:47;;;;;;;;;5.67;4.17;;;;;;;;1982124;28;2746143;-72
2023/05/18 00:52:01;;;;;;;;;5.67;5.67;;;;;;;;1982783;28;2746130;-72
2023/05/18 00:53:14;;;;;;;;;5.17;4.33;;;;;;;;1959328;28;2736720;-72
2023/05/18 00:54:27;;;;;;;;;5.33;5.00;;;;;;;;1959063;28;2742990;-72
2023/05/18 00:55:41;;;;;;;;;5.00;4.00;;;;;;;;1958894;29;2750313;-72
2023/05/18 00:56:54;;;;;;;;;7.00;5.50;;;;;;;;1959927;28;2741960;-72
2023/05/18 00:58:07;;;;;;;;;4.33;4.33;;;;;;;;1980648;28;2742998;-72
2023/05/18 00:59:20;;;;;;;;;5.67;4.17;;;;;;;;1958900;28;2747169;-72
2023/05/18 01:00:36;;;;;;;;;6.83;5.00;;;;;;;;1964518;28;2742971;-72
2023/05/18 01:01:47;;;;;;;;;6.00;4.67;;;;;;;;1939958;28;2750300;-72
2023/05/18 01:02:59;;;;;;;;;4.33;4.33;;;;;;;;1955656;29;3459660;-72
2023/05/18 01:04:15;;;;;;;;;6.67;4.67;;;;;;;;1987953;28;2745074;-72
2023/05/18 01:05:28;;;;;;;;;5.00;5.00;;;;;;;;1962529;28;2737774;-72
2023/05/18 01:06:41;;;;;;;;;6.67;5.00;;;;;;;;1959088;28;2746128;-72
2023/05/18 01:07:55;;;;;;;;;5.00;5.00;;;;;;;;1959948;28;2745050;-72
2023/05/18 01:09:09;;;;;;;;;5.83;4.00;;;;;;;;1959337;28;2737764;-72
2023/05/18 01:10:19;;;;;;;;;8.00;8.00;;;;;;;;1934081;28;2735782;-72
2023/05/18 01:11:56;;;;;;;;;9.33;6.00;;;;;;;;1980766;28;2748198;-72
2023/05/18 01:13:14;;;;;;;;;5.33;5.00;;;;;;;;1954965;28;3460692;-72
2023/05/18 01:14:41;;;;;;;;;7.17;5.00;;;;;;;;1988728;28;2741386;-72
2023/05/18 01:15:56;;;;;;;;;6.17;4.17;;;;;;;;1989625;28;2739853;-72
2023/05/18 01:17:22;;;;;;;;;6.67;5.33;;;;;;;;1966046;28;2739878;-72
2023/05/18 01:18:49;;;;;;;;;7.00;4.00;;;;;;;;1936253;28;2748171;-72
2023/05/18 01:20:10;;;;;;;;;8.67;5.33;;;;;;;;1962861;28;3462749;-72
2023/05/18 01:21:30;;;;;;;;;6.33;5.50;;;;;;;;1989464;28;2746619;-72
2023/05/18 01:22:49;;;;;;;;;5.83;5.83;;;;;;;;1966951;28;2745077;-72
2023/05/18 01:24:14;;;;;;;;;4.17;4.00;;;;;;;;1965784;28;2746100;-72
2023/05/18 01:25:47;;;;;;;;;4.83;2.00;;;;;;;;1990997;28;2717991;-72
2023/05/18 01:27:02;;;;;;;;;6.83;5.17;;;;;;;;1989307;28;2745093;-72
2023/05/18 01:28:17;;;;;;;;;7.33;4.83;;;;;;;;1967758;28;2745065;-72
2023/05/18 01:29:30;;;;;;;;;6.33;4.00;;;;;;;;1989208;28;2747145;-72
2023/05/18 01:30:40;;;;;;;;;13.00;7.00;;;;;;;;1954362;28;1844027;-72
2023/05/18 01:31:51;;;;;;;;;8.00;5.33;;;;;;;;1966971;28;2737786;-72
2023/05/18 01:33:08;;;;;;;;;9.83;6.00;;;;;;;;1965637;28;2746115;-72
2023/05/18 01:34:21;;;;;;;;;9.00;5.00;;;;;;;;1982153;28;2742963;-72
2023/05/18 01:35:40;;;;;;;;;7.67;5.17;;;;;;;;1960820;28;2735675;-72
2023/05/18 01:36:53;;;;;;;;;6.50;3.00;;;;;;;;1965393;28;2741932;-72
2023/05/18 01:38:06;;;;;;;;;7.33;4.17;;;;;;;;1959906;28;2752340;-72
2023/05/18 01:39:19;;;;;;;;;6.50;5.00;;;;;;;;1959043;28;2742994;-72
2023/05/18 01:41:02;;;;;;;;;6.83;6.33;;;;;;;;1965568;28;2733035;-72
2023/05/18 01:42:15;;;;;;;;;7.33;5.33;;;;;;;;1955936;28;2744075;-72
2023/05/18 01:43:35;;;;;;;;;4.00;4.00;;;;;;;;1989928;28;2732669;-72
2023/05/18 01:44:50;;;;;;;;;7.50;4.00;;;;;;;;1989233;28;2750283;-72
2023/05/18 01:46:06;;;;;;;;;7.00;6.17;;;;;;;;1960274;28;2746072;-72
2023/05/18 01:47:20;;;;;;;;;7.33;5.00;;;;;;;;1959257;28;2745070;-72
2023/05/18 01:48:36;;;;;;;;;7.83;5.50;;;;;;;;1959791;28;2745424;-72
2023/05/18 01:49:46;;;;;;;;;3.33;3.33;;;;;;;;1941389;28;2744027;-72
2023/05/18 01:50:58;;;;;;;;;4.00;4.00;;;;;;;;1987465;28;2746204;-72
2023/05/18 01:52:17;;;;;;;;;7.33;4.17;;;;;;;;1980984;28;2745082;-72
2023/05/18 01:53:34;;;;;;;;;3.67;2.33;;;;;;;;1981830;29;2741963;-72
2023/05/18 01:54:47;;;;;;;;;12.00;4.33;;;;;;;;1963117;28;3491903;-72
2023/05/18 01:56:02;;;;;;;;;4.67;4.67;;;;;;;;1989738;28;2742973;-72
2023/05/18 01:57:14;;;;;;;;;5.33;5.33;;;;;;;;1940940;28;2748170;-72
2023/05/18 01:58:28;;;;;;;;;7.67;5.67;;;;;;;;1988863;28;2738865;-72
2023/05/18 01:59:41;;;;;;;;;8.67;5.50;;;;;;;;1989087;28;2743022;-72
2023/05/18 02:00:54;;;;;;;;;7.33;5.50;;;;;;;;1988929;28;2742987;-72
2023/05/18 02:02:07;;;;;;;;;7.00;6.00;;;;;;;;1964878;28;2735681;-72
2023/05/18 02:03:17;;;;;;;;;5.00;5.00;;;;;;;;1933578;28;2750359;-72
2023/05/18 02:04:28;;;;;;;;;9.33;5.00;;;;;;;;1986229;28;3472163;-72
2023/05/18 02:05:40;;;;;;;;;7.00;7.00;;;;;;;;1987912;28;2739861;-72
2023/05/18 02:06:54;;;;;;;;;4.50;4.00;;;;;;;;1988498;28;2750277;-72
2023/05/18 02:08:07;;;;;;;;;7.00;6.67;;;;;;;;1966312;28;2741257;-72
2023/05/18 02:09:17;;;;;;;;;9.33;5.00;;;;;;;;1946563;28;1822135;-72
2023/05/18 02:10:28;;;;;;;;;7.33;4.67;;;;;;;;1966223;28;2746130;-72
2023/05/18 02:11:38;;;;;;;;;7.67;5.67;;;;;;;;1962312;28;2750400;-72
2023/05/18 02:12:51;;;;;;;;;9.00;5.67;;;;;;;;1979698;28;2746108;-72
2023/05/18 02:14:01;;;;;;;;;6.67;5.33;;;;;;;;1962950;28;2745053;-72
2023/05/18 02:15:12;;;;;;;;;8.67;5.67;;;;;;;;1987335;28;2747158;-72
2023/05/18 02:16:22;;;;;;;;;4.00;4.00;;;;;;;;1964517;28;2740919;-72
2023/05/18 02:17:37;;;;;;;;;5.33;3.67;;;;;;;;1988888;28;2748167;-72
2023/05/18 02:18:51;;;;;;;;;3.83;3.17;;;;;;;;1988902;28;2752359;-72
2023/05/18 02:20:08;;;;;;;;;5.00;5.00;;;;;;;;1966374;28;2745066;-72
2023/05/18 02:21:21;;;;;;;;;4.33;4.33;;;;;;;;1966058;28;2750282;-72
2023/05/18 02:22:35;;;;;;;;;10.00;7.67;;;;;;;;1965804;28;2738812;-72
2023/05/18 02:23:45;;;;;;;;;8.00;5.33;;;;;;;;1940190;28;3456500;-72
2023/05/18 02:24:56;;;;;;;;;8.67;4.67;;;;;;;;1988219;28;2752708;-72
2023/05/18 02:26:08;;;;;;;;;7.40;7.40;;;;;;;;1966791;28;2735695;-72
2023/05/18 02:27:19;;;;;;;;;10.33;4.00;;;;;;;;1941809;28;2771233;-72
2023/05/18 02:28:31;;;;;;;;;3.50;3.25;;;;;;;;1987230;28;2741994;-72
2023/05/18 02:29:41;;;;;;;;;8.67;6.33;;;;;;;;1940795;28;3462717;-72
2023/05/18 02:30:52;;;;;;;;;8.00;3.33;;;;;;;;1977798;28;2756601;-72
2023/05/18 02:32:03;;;;;;;;;8.33;5.67;;;;;;;;1983216;28;2754427;-72
2023/05/18 02:33:14;;;;;;;;;4.00;3.00;;;;;;;;1987730;28;2750287;-72
2023/05/18 02:34:26;;;;;;;;;12.00;6.33;;;;;;;;1944345;28;2743055;-72
2023/05/18 02:35:40;;;;;;;;;7.67;7.33;;;;;;;;1989269;28;2731528;-72
2023/05/18 02:36:56;;;;;;;;;7.00;5.50;;;;;;;;1988996;28;2745049;-72
2023/05/18 02:38:09;;;;;;;;;8.00;6.50;;;;;;;;1966535;28;2733611;-72
2023/05/18 02:39:22;;;;;;;;;7.17;2.00;;;;;;;;1965414;28;2756508;-72
2023/05/18 02:40:35;;;;;;;;;4.50;4.17;;;;;;;;1957983;28;2748179;-72
2023/05/18 02:41:48;;;;;;;;;10.00;6.00;;;;;;;;1965498;28;2752421;-72
2023/05/18 02:43:01;;;;;;;;;8.67;5.67;;;;;;;;1962701;28;2743013;-72
2023/05/18 02:44:14;;;;;;;;;6.50;4.33;;;;;;;;1966902;28;2746087;-72
2023/05/18 02:45:27;;;;;;;;;6.33;4.67;;;;;;;;1966245;28;2742998;-72
2023/05/18 02:46:38;;;;;;;;;8.33;5.00;;;;;;;;1962513;28;2743002;-72
2023/05/18 02:47:49;;;;;;;;;8.33;6.67;;;;;;;;1986456;28;2737789;-72
2023/05/18 02:48:59;;;;;;;;;9.67;8.00;;;;;;;;1962238;28;2753488;-72
2023/05/18 02:50:10;;;;;;;;;7.33;6.67;;;;;;;;1980279;28;2745165;-72
2023/05/18 02:51:21;;;;;;;;;7.33;7.00;;;;;;;;1987246;28;2745051;-72
2023/05/18 02:52:34;;;;;;;;;7.00;7.00;;;;;;;;1988896;28;2738831;-72
2023/05/18 02:53:48;;;;;;;;;7.33;5.50;;;;;;;;1964763;28;2735704;-72
2023/05/18 02:54:58;;;;;;;;;10.67;7.33;;;;;;;;1939288;28;3474218;-72
2023/05/18 02:56:11;;;;;;;;;7.33;6.67;;;;;;;;1984463;28;2732673;-72
2023/05/18 02:57:21;;;;;;;;;8.00;6.33;;;;;;;;1962502;28;3456610;-72
2023/05/18 02:58:33;;;;;;;;;4.50;4.50;;;;;;;;1987367;28;2745098;-72
2023/05/18 02:59:43;;;;;;;;;10.00;9.67;;;;;;;;1962996;28;2771094;-72
2023/05/18 03:00:54;;;;;;;;;8.00;7.33;;;;;;;;1987882;28;2740911;-72
2023/05/18 03:02:07;;;;;;;;;7.00;7.00;;;;;;;;1987779;28;2734672;-72
2023/05/18 03:03:20;;;;;;;;;7.33;5.67;;;;;;;;1967174;28;2748198;-72
2023/05/18 03:04:33;;;;;;;;;7.83;7.17;;;;;;;;1965053;28;2741391;-72
2023/05/18 03:05:43;;;;;;;;;11.50;8.00;;;;;;;;1962407;28;2759620;-72
2023/05/18 03:06:56;;;;;;;;;17.00;7.67;;;;;;;;1986541;28;3502327;-72
2023/05/18 03:08:06;;;;;;;;;8.33;8.33;;;;;;;;1963653;28;2742961;-72
2023/05/18 03:09:18;;;;;;;;;7.00;7.00;;;;;;;;1986953;28;2727385;-72
2023/05/18 03:10:28;;;;;;;;;9.33;8.67;;;;;;;;1963762;28;2736737;-72
2023/05/18 03:11:39;;;;;;;;;11.33;9.00;;;;;;;;1985614;28;3478402;-72
2023/05/18 03:12:50;;;;;;;;;11.67;7.67;;;;;;;;1982743;28;3472498;-72
2023/05/18 03:14:01;;;;;;;;;8.00;7.67;;;;;;;;1982543;28;3446087;-72
2023/05/18 03:15:12;;;;;;;;;10.67;7.00;;;;;;;;1975750;28;2757596;-72
2023/05/18 03:16:27;;;;;;;;;7.83;7.83;;;;;;;;1981348;28;2732566;-72
2023/05/18 03:17:43;;;;;;;;;5.33;4.00;;;;;;;;1981080;28;2745072;-72
2023/05/18 03:18:57;;;;;;;;;10.67;8.67;;;;;;;;1955105;29;2750344;-72
2023/05/18 03:20:13;;;;;;;;;12.67;8.00;;;;;;;;1959706;28;3473166;-72
2023/05/18 03:21:23;;;;;;;;;10.00;7.33;;;;;;;;1976689;28;1829418;-72
2023/05/18 03:22:34;;;;;;;;;8.33;8.00;;;;;;;;1953798;28;2741952;-72
2023/05/18 03:23:45;;;;;;;;;10.00;7.00;;;;;;;;1967537;28;3466911;-71
2023/05/18 03:24:56;;;;;;;;;14.00;9.00;;;;;;;;1983759;28;2750411;-72
2023/05/18 03:26:10;;;;;;;;;7.67;7.33;;;;;;;;1983750;28;2742089;-72
2023/05/18 03:27:24;;;;;;;;;8.33;8.00;;;;;;;;1961398;28;3465838;-72
2023/05/18 03:28:34;;;;;;;;;10.33;7.67;;;;;;;;1962460;28;3465867;-72
2023/05/18 03:29:45;;;;;;;;;9.00;9.00;;;;;;;;1984187;28;2750779;-72
2023/05/18 03:30:56;;;;;;;;;9.67;7.67;;;;;;;;1970998;29;3465376;-72
2023/05/18 03:32:07;;;;;;;;;13.67;9.67;;;;;;;;1966816;29;3486710;-72
2023/05/18 03:33:18;;;;;;;;;9.67;9.00;;;;;;;;1976051;28;3485650;-71
2023/05/18 03:34:29;;;;;;;;;7.33;5.33;;;;;;;;1967389;28;2748294;-72
2023/05/18 03:35:40;;;;;;;;;8.00;8.00;;;;;;;;1979596;28;2744052;-72
2023/05/18 03:36:51;;;;;;;;;9.67;8.33;;;;;;;;1968384;28;1826289;-72
2023/05/18 03:38:01;;;;;;;;;9.00;8.00;;;;;;;;1940364;28;2743044;-72
2023/05/18 03:39:12;;;;;;;;;12.33;8.00;;;;;;;;1992132;28;1844066;-72
2023/05/18 03:40:23;;;;;;;;;10.33;9.00;;;;;;;;1960119;28;3478449;-72
2023/05/18 03:41:36;;;;;;;;;6.67;6.17;;;;;;;;1988786;28;2728392;-72
2023/05/18 03:42:48;;;;;;;;;11.00;9.00;;;;;;;;1976426;28;1827385;-72
2023/05/18 03:43:58;;;;;;;;;10.00;8.67;;;;;;;;1961416;28;2752456;-72
2023/05/18 03:45:09;;;;;;;;;7.00;7.00;;;;;;;;1976518;29;2734754;-72
2023/05/18 03:46:22;;;;;;;;;6.60;4.20;;;;;;;;1980435;29;2740926;-72
2023/05/18 03:47:33;;;;;;;;;17.67;11.00;;;;;;;;1930660;28;3526276;-72
2023/05/18 03:48:43;;;;;;;;;8.50;7.00;;;;;;;;1947920;28;2742965;-72
2023/05/18 03:49:54;;;;;;;;;12.67;9.00;;;;;;;;1983476;28;1826984;-72
2023/05/18 03:51:05;;;;;;;;;10.00;8.00;;;;;;;;1966523;28;2762054;-72
2023/05/18 03:52:21;;;;;;;;;13.00;10.50;;;;;;;;1975563;28;2789842;-72
2023/05/18 03:53:32;;;;;;;;;10.67;10.33;;;;;;;;1960928;28;3508577;-72
2023/05/18 03:54:43;;;;;;;;;11.67;9.33;;;;;;;;1961011;28;3490869;-72
2023/05/18 03:55:55;;;;;;;;;7.75;7.75;;;;;;;;1987378;28;2733596;-72
2023/05/18 03:57:06;;;;;;;;;10.67;8.33;;;;;;;;1962132;28;3472091;-72
2023/05/18 03:58:18;;;;;;;;;10.00;7.33;;;;;;;;1975406;28;3469026;-72
2023/05/18 03:59:29;;;;;;;;;11.67;9.67;;;;;;;;1975560;28;1834618;-72
2023/05/18 04:00:41;;;;;;;;;11.50;10.00;;;;;;;;1960572;28;2787875;-72
2023/05/18 04:01:54;;;;;;;;;8.33;7.33;;;;;;;;1981118;28;2743035;-72
2023/05/18 04:03:05;;;;;;;;;13.00;10.00;;;;;;;;1955568;28;2784624;-71
2023/05/18 04:04:16;;;;;;;;;9.25;7.50;;;;;;;;1988344;28;1827453;-72
2023/05/18 04:05:29;;;;;;;;;8.50;6.67;;;;;;;;1988253;28;2754529;-72
2023/05/18 04:06:40;;;;;;;;;12.00;9.00;;;;;;;;1961572;28;2771130;-72
2023/05/18 04:07:51;;;;;;;;;10.67;8.33;;;;;;;;1984914;28;3492376;-72
2023/05/18 04:09:02;;;;;;;;;14.67;9.33;;;;;;;;1982392;28;3498151;-72
2023/05/18 04:10:13;;;;;;;;;11.67;11.67;;;;;;;;1982822;28;1844638;-72
2023/05/18 04:11:24;;;;;;;;;10.25;9.25;;;;;;;;1955432;28;1844109;-72
2023/05/18 04:12:35;;;;;;;;;14.33;9.67;;;;;;;;1960985;28;3506473;-72
2023/05/18 04:13:46;;;;;;;;;11.33;9.00;;;;;;;;1980776;28;3486671;-72
2023/05/18 04:14:57;;;;;;;;;12.00;9.50;;;;;;;;1978982;28;1837743;-72
2023/05/18 04:16:12;;;;;;;;;8.67;8.67;;;;;;;;1962192;28;3453370;-72
2023/05/18 04:17:22;;;;;;;;;11.67;9.33;;;;;;;;1960827;28;3490853;-72
2023/05/18 04:18:35;;;;;;;;;14.50;10.75;;;;;;;;1990296;28;1835752;-72
2023/05/18 04:19:45;;;;;;;;;11.33;8.00;;;;;;;;1960523;28;3492985;-72
2023/05/18 04:20:56;;;;;;;;;11.00;9.00;;;;;;;;1976503;28;2750246;-72
2023/05/18 04:22:07;;;;;;;;;9.00;9.00;;;;;;;;1979063;28;3477292;-72
2023/05/18 04:23:19;;;;;;;;;12.75;9.75;;;;;;;;1989410;28;1844068;-72
2023/05/18 04:24:31;;;;;;;;;10.33;9.00;;;;;;;;1963013;28;3485680;-72
2023/05/18 04:25:42;;;;;;;;;11.00;8.00;;;;;;;;1960226;28;3480525;-72
2023/05/18 04:26:52;;;;;;;;;10.00;9.00;;;;;;;;1954995;29;3479400;-72
2023/05/18 04:28:03;;;;;;;;;12.00;11.33;;;;;;;;1987820;28;1842010;-72
2023/05/18 04:29:14;;;;;;;;;9.00;8.67;;;;;;;;1964836;28;2741996;-72
2023/05/18 04:30:25;;;;;;;;;10.00;8.50;;;;;;;;1977484;28;2761731;-72
2023/05/18 04:31:36;;;;;;;;;14.33;10.33;;;;;;;;1953218;28;3521576;-72
2023/05/18 04:32:47;;;;;;;;;11.00;10.00;;;;;;;;1950909;28;2782569;-72
2023/05/18 04:33:59;;;;;;;;;11.00;8.33;;;;;;;;1982573;28;3484576;-72
2023/05/18 04:35:10;;;;;;;;;16.25;11.75;;;;;;;;1959832;28;1842010;-72
2023/05/18 04:36:24;;;;;;;;;9.50;8.00;;;;;;;;1954780;28;2765910;-72
2023/05/18 04:37:34;;;;;;;;;12.50;11.50;;;;;;;;1956267;28;2791943;-72
2023/05/18 04:38:45;;;;;;;;;11.00;9.00;;;;;;;;1995112;28;1829492;-72
2023/05/18 04:39:57;;;;;;;;;10.00;10.00;;;;;;;;1964301;28;2786718;-72
2023/05/18 04:41:08;;;;;;;;;12.33;10.33;;;;;;;;1962331;28;3513773;-72
2023/05/18 04:42:19;;;;;;;;;11.50;9.50;;;;;;;;1964813;28;2785694;-72
2023/05/18 04:43:29;;;;;;;;;10.50;9.50;;;;;;;;1962001;28;2775644;-72
2023/05/18 04:44:40;;;;;;;;;10.50;9.00;;;;;;;;1960527;28;2763806;-72
2023/05/18 04:45:51;;;;;;;;;12.00;8.33;;;;;;;;1986494;28;1846149;-72
2023/05/18 04:47:02;;;;;;;;;9.33;7.67;;;;;;;;1963742;28;2739838;-72
2023/05/18 04:48:13;;;;;;;;;11.50;11.00;;;;;;;;1985969;28;2799209;-72
2023/05/18 04:49:24;;;;;;;;;11.50;11.00;;;;;;;;1982113;28;2789927;-72
2023/05/18 04:50:36;;;;;;;;;11.75;11.25;;;;;;;;1974607;28;1846100;-72
2023/05/18 04:51:48;;;;;;;;;12.33;9.33;;;;;;;;1963663;28;3502326;-72
2023/05/18 04:53:01;;;;;;;;;15.00;13.00;;;;;;;;1954263;28;2790890;-72
2023/05/18 04:54:11;;;;;;;;;9.33;8.33;;;;;;;;1932269;28;3472144;-72
2023/05/18 04:55:26;;;;;;;;;13.00;10.00;;;;;;;;1976630;28;1835675;-72
2023/05/18 04:56:36;;;;;;;;;12.00;10.50;;;;;;;;1953951;29;2789843;-72
2023/05/18 04:57:48;;;;;;;;;14.67;13.00;;;;;;;;1959732;28;1845101;-72
2023/05/18 04:58:58;;;;;;;;;16.00;11.50;;;;;;;;1953904;28;2796058;-72
2023/05/18 05:00:11;;;;;;;;;12.00;11.00;;;;;;;;1956339;29;2794059;-72
2023/05/18 05:01:24;;;;;;;;;7.50;6.50;;;;;;;;1981316;29;2739850;-71
2023/05/18 05:02:35;;;;;;;;;13.00;11.00;;;;;;;;1936236;28;2789840;-72
2023/05/18 05:03:46;;;;;;;;;15.50;9.00;;;;;;;;1984883;28;2783567;-72
2023/05/18 05:04:57;;;;;;;;;13.50;10.00;;;;;;;;1985097;28;2787807;-71
2023/05/18 05:06:08;;;;;;;;;11.67;11.00;;;;;;;;1984985;28;3512707;-71
2023/05/18 05:07:19;;;;;;;;;15.00;12.50;;;;;;;;1976932;28;2786795;-71
2023/05/18 05:08:30;;;;;;;;;13.75;11.25;;;;;;;;1984625;28;1812896;-71
2023/05/18 05:09:41;;;;;;;;;16.00;11.75;;;;;;;;1968856;28;1849296;-72
2023/05/18 05:10:52;;;;;;;;;14.50;10.50;;;;;;;;1976999;28;2788810;-72
2023/05/18 05:12:03;;;;;;;;;10.00;9.67;;;;;;;;1992750;28;1837814;-72
2023/05/18 05:13:14;;;;;;;;;14.75;10.00;;;;;;;;1970154;28;1841005;-72
2023/05/18 05:14:27;;;;;;;;;6.17;4.33;;;;;;;;1985113;28;2732515;-72
2023/05/18 05:15:38;;;;;;;;;12.75;10.25;;;;;;;;1951679;28;1835701;-72
2023/05/18 05:16:49;;;;;;;;;10.00;10.00;;;;;;;;1962220;28;2778377;-72
2023/05/18 05:18:00;;;;;;;;;13.67;11.67;;;;;;;;1969749;28;1846640;-72
2023/05/18 05:19:10;;;;;;;;;17.50;12.50;;;;;;;;1965407;28;2820066;-72
2023/05/18 05:20:21;;;;;;;;;15.00;11.33;;;;;;;;1962756;28;3528379;-72
2023/05/18 05:21:32;;;;;;;;;10.00;9.25;;;;;;;;1990696;28;1819057;-72
2023/05/18 05:22:42;;;;;;;;;10.00;7.33;;;;;;;;1963381;28;3475244;-72
2023/05/18 05:23:53;;;;;;;;;13.00;10.00;;;;;;;;1982388;28;2790290;-72
2023/05/18 05:25:05;;;;;;;;;14.00;10.00;;;;;;;;1985918;28;2792926;-72
2023/05/18 05:26:16;;;;;;;;;13.00;9.50;;;;;;;;1975752;28;2783599;-72
2023/05/18 05:27:27;;;;;;;;;18.67;14.00;;;;;;;;1962148;28;2820051;-72
2023/05/18 05:28:39;;;;;;;;;13.00;9.75;;;;;;;;1976034;28;1839889;-72
2023/05/18 05:29:49;;;;;;;;;12.50;11.50;;;;;;;;1957030;28;2786731;-72
2023/05/18 05:31:00;;;;;;;;;14.50;13.00;;;;;;;;1961901;29;2789900;-72
2023/05/18 05:32:12;;;;;;;;;12.33;9.67;;;;;;;;1950298;28;3498152;-72
2023/05/18 05:33:23;;;;;;;;;11.75;11.00;;;;;;;;1987017;28;1841949;-72
2023/05/18 05:34:33;;;;;;;;;13.00;13.00;;;;;;;;1954864;28;2774307;-72
2023/05/18 05:35:45;;;;;;;;;12.75;11.50;;;;;;;;1991064;28;1823281;-72
2023/05/18 05:36:55;;;;;;;;;11.50;9.50;;;;;;;;1962038;28;2782557;-72
2023/05/18 05:38:06;;;;;;;;;7.33;6.00;;;;;;;;1970331;28;2747206;-72
2023/05/18 05:39:17;;;;;;;;;10.00;10.00;;;;;;;;1969023;28;2775265;-72
2023/05/18 05:40:28;;;;;;;;;13.00;10.00;;;;;;;;1978360;28;2784640;-72
2023/05/18 05:41:39;;;;;;;;;11.50;9.50;;;;;;;;1984689;28;2771169;-72
2023/05/18 05:42:50;;;;;;;;;16.00;12.00;;;;;;;;1985500;28;2799202;-72
2023/05/18 05:44:01;;;;;;;;;14.00;11.00;;;;;;;;1964378;28;2785708;-72
2023/05/18 05:45:12;;;;;;;;;14.00;11.00;;;;;;;;1990708;28;1849303;-72
2023/05/18 05:46:23;;;;;;;;;14.00;10.00;;;;;;;;1963010;28;2791899;-72
2023/05/18 05:47:34;;;;;;;;;13.00;11.50;;;;;;;;1951284;28;1846084;-72
2023/05/18 05:48:45;;;;;;;;;15.25;11.25;;;;;;;;1976339;28;1851379;-72
2023/05/18 05:49:55;;;;;;;;;15.67;13.00;;;;;;;;1961798;28;3537761;-72
2023/05/18 05:51:06;;;;;;;;;13.50;9.00;;;;;;;;1979295;28;2775276;-72
2023/05/18 05:52:17;;;;;;;;;13.00;11.00;;;;;;;;1985145;28;2782567;-72
2023/05/18 05:53:28;;;;;;;;;10.67;10.00;;;;;;;;1984369;28;3509634;-72
2023/05/18 05:54:40;;;;;;;;;13.00;12.50;;;;;;;;1983593;28;2790897;-72
2023/05/18 05:55:50;;;;;;;;;15.00;12.00;;;;;;;;1960500;28;2793983;-72
2023/05/18 05:57:02;;;;;;;;;12.00;11.00;;;;;;;;1983219;28;2795083;-72
2023/05/18 05:58:13;;;;;;;;;10.00;10.00;;;;;;;;1961402;28;2781522;-72
2023/05/18 05:59:23;;;;;;;;;11.75;11.00;;;;;;;;1957437;29;1827402;-72
2023/05/18 06:00:34;;;;;;;;;12.00;9.50;;;;;;;;1954101;28;2773145;-72
2023/05/18 06:01:45;;;;;;;;;16.00;12.00;;;;;;;;1978684;28;2802342;-72
2023/05/18 06:02:57;;;;;;;;;14.00;11.50;;;;;;;;1951753;28;2791895;-72
2023/05/18 06:04:11;;;;;;;;;12.25;10.75;;;;;;;;1946781;28;1841920;-72
2023/05/18 06:05:21;;;;;;;;;14.50;11.00;;;;;;;;1961219;28;2797254;-72
2023/05/18 06:06:32;;;;;;;;;16.25;11.25;;;;;;;;1983614;28;1821189;-72
2023/05/18 06:07:42;;;;;;;;;11.50;9.50;;;;;;;;1956660;29;2780961;-72
2023/05/18 06:08:53;;;;;;;;;18.00;14.00;;;;;;;;1977216;28;2801279;-72
2023/05/18 06:10:05;;;;;;;;;16.00;10.00;;;;;;;;1952838;29;2800263;-72
2023/05/18 06:11:16;;;;;;;;;15.75;11.75;;;;;;;;1958795;28;1838876;-72
2023/05/18 06:12:29;;;;;;;;;13.67;10.67;;;;;;;;1990677;28;1823211;-72
2023/05/18 06:13:40;;;;;;;;;20.00;15.00;;;;;;;;1938618;28;2827342;-72
2023/05/18 06:14:56;;;;;;;;;12.50;9.00;;;;;;;;1958700;28;2771094;-72
2023/05/18 06:16:09;;;;;;;;;10.33;9.50;;;;;;;;1989150;28;1831564;-72
2023/05/18 06:17:19;;;;;;;;;12.67;10.00;;;;;;;;1934423;28;2772593;-72
2023/05/18 06:18:30;;;;;;;;;13.50;12.50;;;;;;;;1980171;28;2786739;-72
2023/05/18 06:19:41;;;;;;;;;11.33;11.33;;;;;;;;1978365;28;3503818;-72
2023/05/18 06:20:52;;;;;;;;;18.00;14.50;;;;;;;;1984775;28;2798173;-72
2023/05/18 06:22:03;;;;;;;;;15.50;14.00;;;;;;;;1990286;28;1821873;-72
2023/05/18 06:23:14;;;;;;;;;18.50;11.50;;;;;;;;1960959;28;2801297;-72
2023/05/18 06:24:25;;;;;;;;;15.00;12.50;;;;;;;;1947952;28;2793300;-72
2023/05/18 06:25:36;;;;;;;;;18.50;12.50;;;;;;;;1962673;28;2798172;-72
2023/05/18 06:26:47;;;;;;;;;16.25;11.00;;;;;;;;1991527;28;1821209;-72
2023/05/18 06:27:57;;;;;;;;;15.00;13.50;;;;;;;;1942080;28;2791938;-72
2023/05/18 06:29:08;;;;;;;;;12.33;11.33;;;;;;;;1985588;28;3495011;-72
2023/05/18 06:30:19;;;;;;;;;14.00;12.00;;;;;;;;1982892;28;2783966;-72
2023/05/18 06:31:31;;;;;;;;;18.00;14.00;;;;;;;;1962774;28;2803365;-72
2023/05/18 06:32:41;;;;;;;;;20.00;16.00;;;;;;;;1958814;28;2806513;-72
2023/05/18 06:33:52;;;;;;;;;14.50;14.00;;;;;;;;1959188;28;2807556;-72
2023/05/18 06:35:03;;;;;;;;;15.00;12.00;;;;;;;;1960555;28;2794030;-72
2023/05/18 06:36:15;;;;;;;;;15.20;11.80;;;;;;;;1986245;28;1819101;-72
2023/05/18 06:37:26;;;;;;;;;15.00;12.50;;;;;;;;1961036;28;2789843;-72
2023/05/18 06:38:37;;;;;;;;;17.50;14.50;;;;;;;;1977674;28;2821104;-72
2023/05/18 06:39:48;;;;;;;;;13.50;12.50;;;;;;;;1953491;28;2806494;-71
2023/05/18 06:40:59;;;;;;;;;12.00;10.50;;;;;;;;1955551;28;2784648;-71
2023/05/18 06:42:10;;;;;;;;;11.00;11.00;;;;;;;;1952871;28;2785690;-72
2023/05/18 06:43:21;;;;;;;;;15.00;12.00;;;;;;;;1980993;29;1830492;-72
2023/05/18 06:44:31;;;;;;;;;20.67;12.33;;;;;;;;1934278;28;3540895;-72
2023/05/18 06:45:42;;;;;;;;;19.00;12.50;;;;;;;;1963481;28;2800295;-72
2023/05/18 06:46:54;;;;;;;;;13.83;13.33;;;;;;;;1954795;28;2789852;-72
2023/05/18 06:48:05;;;;;;;;;15.00;12.50;;;;;;;;1963534;28;1827398;-72
2023/05/18 06:49:16;;;;;;;;;16.33;16.33;;;;;;;;1953700;29;2811729;-72
2023/05/18 06:50:26;;;;;;;;;14.50;13.50;;;;;;;;1958160;28;2810664;-72
2023/05/18 06:51:37;;;;;;;;;15.33;14.00;;;;;;;;1960790;28;1833680;-72
2023/05/18 06:52:48;;;;;;;;;21.00;15.50;;;;;;;;1965750;28;2818981;-72
2023/05/18 06:53:59;;;;;;;;;7.33;6.33;;;;;;;;1976302;28;2741935;-72
2023/05/18 06:55:10;;;;;;;;;14.00;13.50;;;;;;;;1982676;28;2789900;-72